Time;durP1;ratioP1;P1;durP2;ratioP2;P2;SDS_P1;SDS_P2;PMS_P1;PMS_P2;Temp;Humidity;BMP_temperature;BMP_pressure;BME280_temperature;BME280_humidity;BME280_pressure;Samples;Min_cycle;Max_cycle;Signal;HPM_P1;HPM_P2
2021/07/01 00:01:54;;;;;;;14.15;4.40;;;666.20;1740.80;;;;;;5074463;28;20500;-73
2021/07/01 00:04:21;;;;;;;15.55;4.35;;;666.10;1740.80;;;;;;5067425;28;20024;-74
2021/07/01 00:06:47;;;;;;;17.15;4.25;;;666.10;1766.40;;;;;;5057236;28;20110;-74
2021/07/01 00:09:18;;;;;;;18.63;4.88;;;665.80;1792.00;;;;;;5066108;28;20008;-84
2021/07/01 00:11:45;;;;;;;18.10;5.13;;;665.70;1792.00;;;;;;5073578;28;20478;-84
2021/07/01 00:14:11;;;;;;;14.23;4.18;;;640.90;1766.40;;;;;;5074476;28;20080;-83
2021/07/01 00:16:37;;;;;;;17.38;4.35;;;640.90;1792.00;;;;;;5074871;28;20422;-81
2021/07/01 00:19:04;;;;;;;16.88;4.32;;;640.90;1792.00;;;;;;5074368;28;20089;-81
2021/07/01 00:21:31;;;;;;;16.23;5.00;;;640.80;1792.00;;;;;;5057714;28;20017;-73
2021/07/01 00:23:57;;;;;;;16.52;4.75;;;640.80;1792.00;;;;;;5054270;28;20475;-84
2021/07/01 00:26:22;;;;;;;12.85;4.32;;;640.70;1792.00;;;;;;5053988;28;20049;-78
2021/07/01 00:28:48;;;;;;;13.90;4.60;;;640.80;1792.00;;;;;;5054393;28;20017;-80
2021/07/01 00:31:14;;;;;;;14.93;4.25;;;640.80;1792.00;;;;;;5054261;28;20021;-80
2021/07/01 00:33:40;;;;;;;12.27;4.18;;;640.90;1817.60;;;;;;5054403;28;20029;-79
2021/07/01 00:36:05;;;;;;;13.98;4.22;;;640.80;1817.60;;;;;;5065156;28;20437;-79
2021/07/01 00:38:31;;;;;;;13.35;4.20;;;640.90;1792.00;;;;;;5073970;28;20103;-83
2021/07/01 00:40:57;;;;;;;10.63;4.10;;;640.90;1792.00;;;;;;5074155;28;20104;-75
2021/07/01 00:43:23;;;;;;;12.73;4.28;;;640.90;1740.80;;;;;;5073714;28;20036;-74
2021/07/01 00:45:50;;;;;;;11.23;3.83;;;640.90;1740.80;;;;;;5073920;28;20096;-74
2021/07/01 00:48:16;;;;;;;15.10;4.78;;;665.60;1740.80;;;;;;5074090;28;20044;-79
2021/07/01 00:50:42;;;;;;;21.42;4.20;;;665.70;1740.80;;;;;;5065223;28;20052;-77
2021/07/01 00:53:08;;;;;;;11.98;3.90;;;665.60;1766.40;;;;;;5073717;28;20024;-78
2021/07/01 00:55:34;;;;;;;13.93;4.22;;;640.70;1766.40;;;;;;5073620;28;20025;-77
2021/07/01 00:58:00;;;;;;;19.25;4.30;;;640.60;1766.40;;;;;;5073707;28;20024;-76
2021/07/01 01:00:54;;;;;;;11.77;4.30;;;640.60;1766.40;;;;;;5072831;28;20031;-73
2021/07/01 01:03:19;;;;;;;14.60;4.35;;;640.50;1766.40;;;;;;5073313;28;20028;-74
2021/07/01 01:05:45;;;;;;;14.10;4.60;;;640.40;1792.00;;;;;;5073448;28;20020;-73
2021/07/01 01:08:11;;;;;;;17.80;4.30;;;640.40;1817.60;;;;;;5073285;28;20044;-72
2021/07/01 01:10:37;;;;;;;14.20;4.57;;;640.30;1817.60;;;;;;5073253;28;20024;-77
2021/07/01 01:13:04;;;;;;;14.70;4.18;;;640.20;1843.20;;;;;;5070246;28;20039;-76
2021/07/01 01:15:30;;;;;;;16.58;4.47;;;640.10;1843.20;;;;;;5052510;28;20047;-73
2021/07/01 01:17:56;;;;;;;16.55;4.18;;;640.20;1843.20;;;;;;5053334;28;20395;-72
2021/07/01 01:20:22;;;;;;;12.23;4.13;;;640.20;1843.20;;;;;;5053172;28;20027;-73
2021/07/01 01:22:47;;;;;;;12.45;3.95;;;640.20;1843.20;;;;;;5051858;28;20040;-74
2021/07/01 01:25:13;;;;;;;11.00;3.53;;;640.20;1843.20;;;;;;5052957;28;20049;-71
2021/07/01 01:27:39;;;;;;;14.95;4.10;;;640.10;1843.20;;;;;;5053020;28;20021;-73
2021/07/01 01:30:06;;;;;;;11.43;4.22;;;640.10;1868.80;;;;;;5053145;28;20017;-73
2021/07/01 01:32:32;;;;;;;12.50;4.20;;;640.10;1868.80;;;;;;5052855;28;20025;-73
2021/07/01 01:34:58;;;;;;;10.70;3.72;;;640.10;1817.60;;;;;;5052925;28;20056;-73
2021/07/01 01:37:24;;;;;;;11.73;3.90;;;640.10;1817.60;;;;;;5061765;28;20572;-78
2021/07/01 01:39:50;;;;;;;8.75;3.28;;;640.10;1792.00;;;;;;5059811;28;20035;-73
2021/07/01 01:42:17;;;;;;;11.38;3.40;;;640.10;1766.40;;;;;;5072319;28;20032;-77
2021/07/01 01:44:43;;;;;;;7.80;3.13;;;640.10;1766.40;;;;;;5071939;28;20031;-77
2021/07/01 01:47:20;;;;;;;9.07;3.13;;;640.10;1740.80;;;;;;5071964;28;20390;-77
2021/07/01 01:49:47;;;;;;;8.63;3.10;;;640.10;1740.80;;;;;;5052937;28;20028;-77
2021/07/01 01:52:13;;;;;;;9.20;2.97;;;640.10;1740.80;;;;;;5052809;28;20556;-77
2021/07/01 01:54:40;;;;;;;9.93;2.95;;;640.10;1740.80;;;;;;5053742;28;20029;-77
2021/07/01 01:57:06;;;;;;;8.63;2.90;;;640.20;1715.20;;;;;;5063528;28;20024;-77
2021/07/01 01:59:32;;;;;;;10.30;3.17;;;640.20;1715.20;;;;;;5058275;28;20024;-73
2021/07/01 02:01:57;;;;;;;8.52;3.17;;;640.20;1715.20;;;;;;5061352;28;20035;-72
2021/07/01 02:04:23;;;;;;;9.20;3.08;;;640.20;1715.20;;;;;;5062868;28;20054;-77
2021/07/01 02:06:49;;;;;;;9.23;3.67;;;640.30;1715.20;;;;;;5058806;28;20075;-77
2021/07/01 02:09:14;;;;;;;9.10;2.97;;;640.30;1715.20;;;;;;5061002;28;20115;-76
2021/07/01 02:11:40;;;;;;;8.40;2.83;;;640.30;1715.20;;;;;;5054567;28;20021;-76
2021/07/01 02:14:06;;;;;;;10.98;3.10;;;640.20;1715.20;;;;;;5055949;28;20372;-71
2021/07/01 02:16:32;;;;;;;9.07;2.90;;;640.20;1715.20;;;;;;5058947;28;20025;-73
2021/07/01 02:18:57;;;;;;;7.18;2.88;;;640.20;1740.80;;;;;;5054468;28;20047;-73
2021/07/01 02:21:23;;;;;;;7.90;3.15;;;640.30;1740.80;;;;;;5055560;28;20025;-73
2021/07/01 02:23:50;;;;;;;9.95;3.13;;;640.30;1715.20;;;;;;5052900;28;20546;-73
2021/07/01 02:26:16;;;;;;;10.10;2.92;;;640.20;1766.40;;;;;;5052234;28;20098;-72
2021/07/01 02:28:43;;;;;;;9.98;2.90;;;640.30;1766.40;;;;;;5052250;28;20410;-72
2021/07/01 02:31:08;;;;;;;9.02;2.90;;;640.30;1740.80;;;;;;5052264;28;20028;-78
2021/07/01 02:33:34;;;;;;;8.57;2.97;;;640.20;1766.40;;;;;;5052065;28;20033;-73
2021/07/01 02:36:00;;;;;;;10.35;3.10;;;640.30;1766.40;;;;;;5052476;28;20025;-73
2021/07/01 02:38:26;;;;;;;6.43;2.88;;;640.20;1740.80;;;;;;5052399;28;20030;-72
2021/07/01 02:40:51;;;;;;;9.73;3.03;;;640.20;1766.40;;;;;;5052370;28;20048;-73
2021/07/01 02:43:17;;;;;;;5.50;2.80;;;640.10;1740.80;;;;;;5052169;28;20033;-72
2021/07/01 02:45:43;;;;;;;8.20;3.25;;;640.20;1740.80;;;;;;5052270;28;20033;-72
2021/07/01 02:48:09;;;;;;;10.70;3.65;;;640.10;1740.80;;;;;;5052072;28;20478;-72
2021/07/01 02:50:34;;;;;;;11.70;2.90;;;640.10;1766.40;;;;;;5053223;28;20036;-72
2021/07/01 02:53:00;;;;;;;8.65;2.90;;;640.10;1740.80;;;;;;5053419;28;20048;-73
2021/07/01 02:55:26;;;;;;;7.47;2.80;;;640.10;1740.80;;;;;;5060894;28;20056;-72
2021/07/01 02:57:51;;;;;;;9.68;3.00;;;640.10;1766.40;;;;;;5054637;28;20036;-76
2021/07/01 03:00:17;;;;;;;9.27;2.80;;;640.00;1766.40;;;;;;5055439;28;20024;-76
2021/07/01 03:02:43;;;;;;;9.02;3.10;;;640.00;1766.40;;;;;;5062495;28;20426;-72
2021/07/01 03:05:09;;;;;;;7.88;2.70;;;640.00;1766.40;;;;;;5054998;28;20052;-73
2021/07/01 03:07:35;;;;;;;10.98;3.00;;;615.30;1766.40;;;;;;5058437;28;20084;-73
2021/07/01 03:10:02;;;;;;;9.85;3.00;;;615.20;1792.00;;;;;;5054997;28;20515;-72
2021/07/01 03:12:28;;;;;;;8.57;2.70;;;615.30;1766.40;;;;;;5056530;28;20028;-71
2021/07/01 03:14:54;;;;;;;5.20;2.85;;;615.30;1766.40;;;;;;5056806;28;20398;-74
2021/07/01 03:17:19;;;;;;;9.13;2.75;;;615.20;1792.00;;;;;;5055090;28;20029;-73
2021/07/01 03:19:45;;;;;;;7.82;2.80;;;615.20;1843.20;;;;;;5054391;28;20029;-71
2021/07/01 03:22:11;;;;;;;8.13;2.83;;;615.10;1843.20;;;;;;5054397;28;20031;-73
2021/07/01 03:24:37;;;;;;;9.23;2.70;;;615.20;1817.60;;;;;;5055723;28;20045;-72
2021/07/01 03:27:04;;;;;;;11.10;2.92;;;615.20;1817.60;;;;;;5056722;28;20078;-73
2021/07/01 03:29:31;;;;;;;8.65;3.10;;;615.30;1792.00;;;;;;5058737;28;20074;-73
2021/07/01 03:31:56;;;;;;;12.77;2.75;;;640.00;1817.60;;;;;;5058253;28;20032;-73
2021/07/01 03:34:23;;;;;;;9.23;2.83;;;640.00;1792.00;;;;;;5057639;28;20379;-73
2021/07/01 03:36:49;;;;;;;7.65;3.00;;;640.00;1792.00;;;;;;5057602;28;20383;-72
2021/07/01 03:39:15;;;;;;;10.18;2.78;;;640.00;1792.00;;;;;;5057568;28;20100;-75
2021/07/01 03:41:41;;;;;;;10.75;3.15;;;640.10;1792.00;;;;;;5059261;28;20471;-74
2021/07/01 03:44:08;;;;;;;11.00;3.10;;;640.20;1792.00;;;;;;5058297;28;20051;-73
2021/07/01 03:46:34;;;;;;;7.43;3.08;;;640.20;1792.00;;;;;;5057794;28;20021;-73
2021/07/01 03:49:00;;;;;;;10.45;3.15;;;640.30;1792.00;;;;;;5057428;28;20111;-72
2021/07/01 03:51:26;;;;;;;9.48;2.72;;;640.40;1766.40;;;;;;5057544;28;20032;-72
2021/07/01 03:53:51;;;;;;;9.38;2.90;;;640.40;1792.00;;;;;;5057143;28;20028;-74
2021/07/01 03:56:17;;;;;;;8.50;3.10;;;640.50;1792.00;;;;;;5066655;28;20475;-72
2021/07/01 03:58:43;;;;;;;7.32;2.92;;;640.50;1792.00;;;;;;5057699;28;20036;-71
2021/07/01 04:01:08;;;;;;;11.95;3.67;;;640.50;1792.00;;;;;;5056604;28;20028;-72
2021/07/01 04:03:34;;;;;;;8.63;2.78;;;640.60;1792.00;;;;;;5063921;28;20037;-71
2021/07/01 04:06:00;;;;;;;14.75;3.33;;;640.60;1792.00;;;;;;5056745;28;20021;-71
2021/07/01 04:08:26;;;;;;;9.13;2.95;;;640.60;1817.60;;;;;;5057203;28;20021;-73
2021/07/01 04:10:52;;;;;;;10.07;2.90;;;640.70;1817.60;;;;;;5056761;28;20060;-72
2021/07/01 04:13:18;;;;;;;7.70;2.90;;;640.80;1817.60;;;;;;5056581;28;20024;-71
2021/07/01 04:15:43;;;;;;;9.75;3.00;;;640.80;1792.00;;;;;;5063130;28;20475;-72
2021/07/01 04:18:16;;;;;;;9.75;2.80;;;640.90;1792.00;;;;;;5059332;28;20023;-71
2021/07/01 04:20:42;;;;;;;9.25;3.10;;;640.90;1792.00;;;;;;5063483;28;20475;-76
2021/07/01 04:23:08;;;;;;;12.77;2.90;;;665.60;1817.60;;;;;;5057318;28;20094;-72
2021/07/01 04:25:35;;;;;;;8.25;3.08;;;665.70;1817.60;;;;;;5053966;28;20044;-71
2021/07/01 04:28:01;;;;;;;7.93;3.15;;;665.80;1792.00;;;;;;5054061;28;20029;-73
2021/07/01 04:30:29;;;;;;;12.25;3.85;;;665.70;1843.20;;;;;;5054259;28;20029;-71
2021/07/01 04:32:55;;;;;;;9.73;3.28;;;665.60;1843.20;;;;;;5054133;28;20033;-72
2021/07/01 04:35:21;;;;;;;11.05;3.55;;;665.60;1868.80;;;;;;5052901;28;20029;-74
2021/07/01 04:37:46;;;;;;;11.30;3.75;;;665.60;1843.20;;;;;;5055775;28;20083;-73
2021/07/01 04:40:12;;;;;;;16.23;3.85;;;665.60;1868.80;;;;;;5056822;28;20080;-76
2021/07/01 04:42:39;;;;;;;16.25;3.75;;;665.70;1868.80;;;;;;5056664;28;20028;-76
2021/07/01 04:45:07;;;;;;;11.05;3.50;;;665.70;1843.20;;;;;;5053357;28;20407;-75
2021/07/01 04:47:36;;;;;;;9.18;2.90;;;665.80;1843.20;;;;;;5054237;28;20023;-74
2021/07/01 04:50:03;;;;;;;9.48;3.33;;;665.90;1843.20;;;;;;5054920;28;20198;-73
2021/07/01 04:52:29;;;;;;;12.82;4.18;;;665.90;1817.60;;;;;;5053513;28;20035;-73
2021/07/01 04:54:55;;;;;;;11.65;4.18;;;666.10;1817.60;;;;;;5060582;28;20052;-77
2021/07/01 04:57:21;;;;;;;13.07;4.22;;;691.60;1766.40;;;;;;5078167;28;20055;-72
2021/07/01 04:59:46;;;;;;;10.13;3.35;;;793.80;1612.80;;;;;;5071299;28;20024;-75
2021/07/01 05:02:12;;;;;;;10.35;3.95;;;871.10;1433.60;;;;;;5075520;28;20445;-76
2021/07/01 05:04:38;;;;;;;11.02;3.90;;;947.40;1331.20;;;;;;5060756;28;20024;-74
2021/07/01 05:07:04;;;;;;;10.10;3.78;;;973.70;1280.00;;;;;;5059101;28;20397;-75
2021/07/01 05:09:30;;;;;;;8.98;3.70;;;1024.40;1254.40;;;;;;5054784;28;20033;-72
2021/07/01 05:11:55;;;;;;;10.90;4.05;;;1050.10;1228.80;;;;;;5054088;28;20029;-76
2021/07/01 05:14:21;;;;;;;12.15;4.05;;;1075.50;1203.20;;;;;;5063772;28;20518;-73
2021/07/01 05:16:47;;;;;;;6.97;3.72;;;1100.80;1177.60;;;;;;5065682;28;20120;-74
2021/07/01 05:19:14;;;;;;;10.25;3.78;;;1101.40;1177.60;;;;;;5069478;28;20050;-72
2021/07/01 05:21:39;;;;;;;10.77;3.72;;;1126.50;1177.60;;;;;;5064442;28;20472;-73
2021/07/01 05:24:06;;;;;;;9.55;3.80;;;1126.70;1152.00;;;;;;5053294;28;20041;-76
2021/07/01 05:26:31;;;;;;;10.25;3.75;;;1126.80;1152.00;;;;;;5053411;28;20045;-72
2021/07/01 05:28:57;;;;;;;10.63;3.55;;;1127.10;1126.40;;;;;;5053117;28;20013;-75
2021/07/01 05:31:23;;;;;;;10.25;3.60;;;1152.00;1126.40;;;;;;5053911;28;20029;-74
2021/07/01 05:33:49;;;;;;;7.75;3.20;;;1152.10;1100.80;;;;;;5053054;28;20025;-72
2021/07/01 05:36:14;;;;;;;6.20;2.70;;;1101.10;1152.00;;;;;;5053328;28;20029;-72
2021/07/01 05:38:40;;;;;;;6.65;2.58;;;999.30;1203.20;;;;;;5052884;28;20029;-73
2021/07/01 05:41:06;;;;;;;8.63;2.85;;;948.10;1228.80;;;;;;5053041;28;20033;-73
2021/07/01 05:43:31;;;;;;;9.48;2.85;;;921.80;1305.60;;;;;;5052679;28;20035;-72
2021/07/01 05:45:57;;;;;;;6.18;2.58;;;871.10;1331.20;;;;;;5052438;28;20044;-75
2021/07/01 05:48:25;;;;;;;8.68;2.60;;;845.20;1433.60;;;;;;5052489;28;20108;-74
2021/07/01 05:51:14;;;;;;;8.98;2.97;;;819.80;1433.60;;;;;;5052635;28;20061;-76
2021/07/01 05:53:45;;;;;;;8.13;2.80;;;794.50;1459.20;;;;;;5052643;28;20399;-80
2021/07/01 05:56:11;;;;;;;6.75;2.50;;;794.00;1484.80;;;;;;5069456;28;20024;-74
2021/07/01 05:58:36;;;;;;;6.93;2.50;;;793.60;1484.80;;;;;;5066446;28;20020;-73
2021/07/01 06:01:02;;;;;;;5.43;2.30;;;768.50;1484.80;;;;;;5063643;28;20535;-74
2021/07/01 06:03:28;;;;;;;8.35;2.97;;;768.40;1484.80;;;;;;5062404;28;20025;-73
2021/07/01 06:06:01;;;;;;;7.55;2.63;;;768.20;1510.40;;;;;;5065551;28;20032;-74
2021/07/01 06:08:31;;;;;;;5.88;2.65;;;768.20;1510.40;;;;;;5063411;28;20147;-73
2021/07/01 06:11:01;;;;;;;8.18;2.60;;;768.20;1510.40;;;;;;5067564;28;20031;-73
2021/07/01 06:13:29;;;;;;;9.00;2.83;;;768.10;1536.00;;;;;;5063956;28;20372;-72
2021/07/01 06:15:55;;;;;;;5.20;2.40;;;768.30;1510.40;;;;;;5067685;28;20071;-73
2021/07/01 06:18:22;;;;;;;7.45;2.58;;;768.20;1536.00;;;;;;5061033;28;20032;-73
2021/07/01 06:20:49;;;;;;;6.32;2.70;;;768.10;1536.00;;;;;;5059238;28;20433;-74
2021/07/01 06:23:16;;;;;;;5.85;2.67;;;768.20;1536.00;;;;;;5054537;28;20468;-74
2021/07/01 06:25:44;;;;;;;5.63;2.70;;;768.30;1536.00;;;;;;5051803;28;20041;-74
2021/07/01 06:28:13;;;;;;;6.78;2.95;;;768.40;1536.00;;;;;;5051784;28;20021;-73
2021/07/01 06:30:41;;;;;;;10.50;3.20;;;768.40;1536.00;;;;;;5051908;28;20041;-74
2021/07/01 06:33:10;;;;;;;11.98;3.10;;;768.50;1561.60;;;;;;5052121;28;20104;-75
2021/07/01 06:35:36;;;;;;;7.95;2.90;;;768.60;1561.60;;;;;;5051842;28;20024;-80
2021/07/01 06:38:08;;;;;;;8.68;3.45;;;768.60;1536.00;;;;;;5052144;28;20036;-80
2021/07/01 06:40:35;;;;;;;8.70;3.03;;;768.60;1536.00;;;;;;5051875;28;20108;-79
2021/07/01 06:43:02;;;;;;;7.30;3.17;;;768.70;1536.00;;;;;;5052060;28;20029;-74
2021/07/01 06:45:29;;;;;;;11.88;2.92;;;768.90;1561.60;;;;;;5051918;28;20025;-73
2021/07/01 06:47:56;;;;;;;8.75;3.08;;;793.80;1587.20;;;;;;5056596;28;20029;-74
2021/07/01 06:50:25;;;;;;;10.43;2.95;;;793.80;1587.20;;;;;;5067026;28;20448;-73
2021/07/01 06:52:56;;;;;;;8.87;3.30;;;793.90;1587.20;;;;;;5057630;28;20059;-73
2021/07/01 06:55:23;;;;;;;10.15;3.40;;;794.00;1587.20;;;;;;5058456;28;20029;-76
2021/07/01 06:57:49;;;;;;;6.03;2.80;;;794.20;1561.60;;;;;;5068484;28;20388;-79
2021/07/01 07:00:18;;;;;;;7.43;3.17;;;794.20;1587.20;;;;;;5071389;28;20063;-79
2021/07/01 07:02:45;;;;;;;9.70;3.20;;;794.30;1561.60;;;;;;5066159;28;20517;-78
2021/07/01 07:05:16;;;;;;;8.68;3.33;;;794.50;1561.60;;;;;;5072735;28;20028;-78
2021/07/01 07:07:44;;;;;;;7.35;3.45;;;794.50;1561.60;;;;;;5071608;28;20028;-74
2021/07/01 07:10:12;;;;;;;8.98;3.22;;;819.30;1587.20;;;;;;5071612;28;20016;-74
2021/07/01 07:12:56;;;;;;;8.98;3.08;;;819.60;1561.60;;;;;;5072710;28;20503;-75
2021/07/01 07:15:27;;;;;;;8.48;3.00;;;819.80;1536.00;;;;;;5069557;28;20088;-75
2021/07/01 07:17:57;;;;;;;7.30;2.97;;;844.90;1536.00;;;;;;5054748;28;20017;-73
2021/07/01 07:20:24;;;;;;;11.73;3.38;;;871.00;1459.20;;;;;;5054813;28;20017;-73
2021/07/01 07:22:52;;;;;;;12.63;2.80;;;948.10;1356.80;;;;;;5054397;28;20490;-73
2021/07/01 07:25:19;;;;;;;9.43;3.30;;;1050.30;1254.40;;;;;;5058411;28;20064;-74
2021/07/01 07:28:20;;;;;;;10.60;3.55;;;1126.70;1228.80;;;;;;5056039;28;20025;-74
2021/07/01 07:30:49;;;;;;;11.60;4.18;;;1177.70;1152.00;;;;;;5055708;28;20059;-75
2021/07/01 07:33:15;;;;;;;7.35;3.17;;;1229.00;1126.40;;;;;;5053214;28;20043;-73
2021/07/01 07:35:41;;;;;;;12.43;3.90;;;1254.50;1126.40;;;;;;5055634;28;20040;-75
2021/07/01 07:38:07;;;;;;;12.35;4.15;;;1255.10;1075.20;;;;;;5062401;28;20028;-74
2021/07/01 07:40:37;;;;;;;10.25;3.70;;;1229.40;1075.20;;;;;;5070875;28;20024;-74
2021/07/01 07:43:04;;;;;;;;;;;1177.70;1126.40;;;;;;5073633;28;20028;-75
2021/07/01 07:45:31;;;;;;;11.43;3.40;;;1100.90;1203.20;;;;;;5072810;28;19911;-74
2021/07/01 07:47:56;;;;;;;13.02;3.42;;;1024.70;1254.40;;;;;;5060697;28;20107;-76
2021/07/01 07:50:22;;;;;;;11.25;3.30;;;998.70;1331.20;;;;;;5074089;28;20099;-71
2021/07/01 07:52:50;;;;;;;8.75;3.25;;;998.50;1331.20;;;;;;5069354;28;20013;-71
2021/07/01 07:55:19;;;;;;;10.18;3.00;;;1024.10;1305.60;;;;;;5066057;28;20103;-73
2021/07/01 07:57:48;;;;;;;10.40;3.30;;;1101.30;1228.80;;;;;;5071134;28;20029;-72
2021/07/01 08:00:14;;;;;;;8.93;3.47;;;1203.20;1152.00;;;;;;5068670;28;20078;-72
2021/07/01 08:02:52;;;;;;;9.02;3.22;;;1254.60;1100.80;;;;;;5067736;28;20033;-73
2021/07/01 08:05:30;;;;;;;11.50;3.40;;;1305.70;1075.20;;;;;;5068644;28;20103;-72
2021/07/01 08:07:58;;;;;;;7.10;2.93;;;1306.50;1049.60;;;;;;5067207;28;20025;-71
2021/07/01 08:10:28;;;;;;;11.55;3.40;;;1332.10;1049.60;;;;;;5071562;28;20020;-71
2021/07/01 08:13:01;;;;;;;8.77;3.30;;;1357.10;1075.20;;;;;;5069090;28;20090;-72
2021/07/01 08:15:28;;;;;;;10.35;3.30;;;1357.70;1049.60;;;;;;5064547;28;20025;-72
2021/07/01 08:17:55;;;;;;;10.00;3.30;;;1357.70;1024.00;;;;;;5070378;28;20025;-75
2021/07/01 08:20:23;;;;;;;9.88;3.30;;;1357.40;1049.60;;;;;;5070679;28;20497;-72
2021/07/01 08:23:03;;;;;;;8.50;3.38;;;1382.40;1049.60;;;;;;5059523;28;20040;-74
2021/07/01 08:25:30;;;;;;;9.57;3.33;;;1383.30;1024.00;;;;;;5056696;28;20032;-72
2021/07/01 08:27:56;;;;;;;8.82;3.15;;;1382.40;1049.60;;;;;;5068473;28;20048;-71
2021/07/01 08:30:25;;;;;;;7.22;3.30;;;1382.40;1049.60;;;;;;5062192;28;20094;-71
2021/07/01 08:32:59;;;;;;;9.43;3.00;;;1382.60;1049.60;;;;;;5066312;28;20031;-74
2021/07/01 08:35:26;;;;;;;7.85;3.35;;;1408.00;1024.00;;;;;;5064258;28;20502;-71
2021/07/01 08:37:57;;;;;;;9.02;3.13;;;1383.10;1024.00;;;;;;5068158;28;20443;-71
2021/07/01 08:40:33;;;;;;;12.27;3.65;;;1382.80;1049.60;;;;;;5065604;28;20021;-71
2021/07/01 08:43:01;;;;;;;10.48;3.30;;;1356.90;1049.60;;;;;;5063538;28;20071;-69
2021/07/01 08:46:12;;;;;;;10.40;3.30;;;1306.30;1049.60;;;;;;5066266;28;20028;-70
2021/07/01 08:49:10;;;;;;;11.05;3.60;;;1229.20;1075.20;;;;;;5024881;28;20392;-71
2021/07/01 08:51:43;;;;;;;7.15;3.03;;;1152.00;1152.00;;;;;;5059378;28;20025;-73
2021/07/01 08:54:30;;;;;;;12.93;3.95;;;1101.40;1177.60;;;;;;5064271;28;20451;-71
2021/07/01 08:56:56;;;;;;;12.32;3.40;;;1050.30;1228.80;;;;;;5062063;28;21000;-71
2021/07/01 08:59:24;;;;;;;14.35;4.05;;;1024.30;1254.40;;;;;;5065925;28;20035;-77
2021/07/01 09:01:56;;;;;;;8.52;3.50;;;998.90;1280.00;;;;;;5065898;28;20021;-72
2021/07/01 09:04:25;;;;;;;11.88;3.35;;;973.60;1305.60;;;;;;5064196;28;20024;-77
2021/07/01 09:06:59;;;;;;;9.93;3.45;;;973.20;1356.80;;;;;;5062995;28;20055;-70
2021/07/01 09:09:33;;;;;;;10.55;3.13;;;973.00;1382.40;;;;;;5066899;28;20020;-70
2021/07/01 09:12:08;;;;;;;11.57;3.60;;;948.10;1331.20;;;;;;5066582;28;20131;-73
2021/07/01 09:14:36;;;;;;;8.48;3.55;;;947.90;1356.80;;;;;;5062551;28;20292;-72
2021/07/01 09:17:11;;;;;;;9.48;3.30;;;947.90;1356.80;;;;;;5067274;28;20494;-71
2021/07/01 09:19:40;;;;;;;11.32;3.42;;;947.60;1382.40;;;;;;5066375;28;20103;-69
2021/07/01 09:22:11;;;;;;;8.68;3.10;;;947.20;1382.40;;;;;;5069487;28;20100;-71
2021/07/01 09:24:38;;;;;;;11.20;3.35;;;922.50;1408.00;;;;;;5068406;28;20502;-70
2021/07/01 09:27:10;;;;;;;13.10;3.60;;;922.20;1408.00;;;;;;5066871;28;20033;-70
2021/07/01 09:29:44;;;;;;;10.32;3.40;;;922.20;1408.00;;;;;;5069646;28;20024;-70
2021/07/01 09:32:11;;;;;;;10.10;3.70;;;922.30;1408.00;;;;;;5057303;28;20025;-70
2021/07/01 09:34:38;;;;;;;9.10;3.28;;;922.30;1382.40;;;;;;5062705;28;20040;-70
2021/07/01 09:37:04;;;;;;;9.15;3.40;;;922.50;1382.40;;;;;;5062179;28;20512;-70
2021/07/01 09:39:32;;;;;;;8.05;3.20;;;922.30;1382.40;;;;;;5060090;28;20063;-71
2021/07/01 09:42:01;;;;;;;11.48;3.80;;;922.20;1408.00;;;;;;5059440;28;20055;-70
2021/07/01 09:44:28;;;;;;;10.70;3.83;;;922.00;1408.00;;;;;;5064897;28;20112;-70
2021/07/01 09:47:00;;;;;;;8.07;3.38;;;921.80;1408.00;;;;;;5070960;28;20544;-70
2021/07/01 09:49:37;;;;;;;9.98;3.60;;;921.70;1433.60;;;;;;5059401;28;20032;-69
2021/07/01 09:52:07;;;;;;;9.02;3.45;;;921.70;1433.60;;;;;;5054315;28;20518;-70
2021/07/01 09:54:34;;;;;;;8.93;3.42;;;921.70;1433.60;;;;;;5054796;28;20056;-70
2021/07/01 09:57:05;;;;;;;10.55;4.03;;;896.90;1408.00;;;;;;5059514;28;20052;-69
2021/07/01 09:59:40;;;;;;;11.48;3.50;;;921.70;1433.60;;;;;;5051659;28;20009;-71
2021/07/01 10:02:14;;;;;;;8.82;3.60;;;896.90;1433.60;;;;;;5062908;28;20017;-71
2021/07/01 10:04:45;;;;;;;12.73;3.60;;;896.80;1433.60;;;;;;5058050;28;20036;-71
2021/07/01 10:07:15;;;;;;;9.98;3.55;;;896.70;1433.60;;;;;;5071691;28;20418;-76
2021/07/01 10:09:42;;;;;;;12.50;4.00;;;896.80;1433.60;;;;;;5071302;28;20017;-75
2021/07/01 10:15:47;;;;;;;8.73;3.60;;;896.60;1433.60;;;;;;5001857;28;20113;-71
2021/07/01 10:18:18;;;;;;;8.15;3.50;;;896.40;1459.20;;;;;;5054926;28;20476;-76
2021/07/01 10:20:53;;;;;;;9.55;3.67;;;896.50;1459.20;;;;;;5069897;28;20072;-71
2021/07/01 10:23:33;;;;;;;12.48;3.60;;;896.50;1433.60;;;;;;5068466;28;20052;-69
2021/07/01 10:26:09;;;;;;;10.23;4.10;;;896.60;1433.60;;;;;;5052278;28;20067;-69
2021/07/01 10:28:36;;;;;;;9.38;3.40;;;896.70;1459.20;;;;;;5051741;28;20100;-70
2021/07/01 10:31:06;;;;;;;10.70;3.58;;;896.60;1459.20;;;;;;5052281;28;20021;-70
2021/07/01 10:33:34;;;;;;;9.80;3.65;;;896.60;1459.20;;;;;;5052153;28;20108;-72
2021/07/01 10:36:03;;;;;;;10.00;3.45;;;896.60;1433.60;;;;;;5060908;28;20036;-70
2021/07/01 10:38:43;;;;;;;8.10;3.20;;;896.60;1408.00;;;;;;5056271;28;20025;-69
2021/07/01 10:41:08;;;;;;;8.50;3.20;;;896.60;1433.60;;;;;;5056156;28;20075;-70
2021/07/01 10:43:42;;;;;;;8.65;3.60;;;896.70;1433.60;;;;;;5056037;28;20437;-69
2021/07/01 10:46:08;;;;;;;7.22;3.65;;;896.80;1408.00;;;;;;5055820;28;20025;-69
2021/07/01 10:48:34;;;;;;;11.15;3.70;;;896.80;1459.20;;;;;;5068051;28;20074;-70
2021/07/01 10:51:11;;;;;;;11.80;3.40;;;896.80;1433.60;;;;;;5057016;28;20025;-71
2021/07/01 10:53:46;;;;;;;14.88;3.45;;;921.60;1459.20;;;;;;5060142;28;20028;-70
2021/07/01 10:56:14;;;;;;;7.95;3.50;;;921.70;1433.60;;;;;;5072217;28;20034;-69
2021/07/01 10:58:42;;;;;;;7.78;3.70;;;921.70;1459.20;;;;;;5074278;28;20096;-70
2021/07/01 11:01:08;;;;;;;10.20;3.47;;;921.70;1433.60;;;;;;5073866;28;20063;-71
2021/07/01 11:03:35;;;;;;;8.80;3.28;;;921.70;1459.20;;;;;;5069600;28;20023;-70
2021/07/01 11:06:03;;;;;;;8.40;3.22;;;921.80;1459.20;;;;;;5071373;28;20017;-72
2021/07/01 11:08:36;;;;;;;10.20;3.25;;;921.70;1459.20;;;;;;5073669;28;20370;-71
2021/07/01 11:11:04;;;;;;;9.52;3.30;;;921.60;1459.20;;;;;;5072410;28;20024;-72
2021/07/01 11:13:31;;;;;;;10.73;3.58;;;921.60;1459.20;;;;;;5058692;28;20044;-72
2021/07/01 11:16:01;;;;;;;7.88;3.40;;;896.90;1408.00;;;;;;5069548;28;20402;-73
2021/07/01 11:18:44;;;;;;;8.65;3.40;;;896.90;1408.00;;;;;;5074282;28;20085;-73
2021/07/01 11:21:15;;;;;;;10.02;3.63;;;896.90;1408.00;;;;;;5072818;28;20044;-70
2021/07/01 11:23:42;;;;;;;7.28;3.67;;;896.60;1433.60;;;;;;5068826;28;20017;-72
2021/07/01 11:26:30;;;;;;;6.43;3.35;;;896.70;1408.00;;;;;;5073681;28;20131;-72
2021/07/01 11:28:58;;;;;;;9.15;3.63;;;896.60;1408.00;;;;;;5073586;28;20512;-70
2021/07/01 11:31:34;;;;;;;6.95;3.20;;;896.80;1408.00;;;;;;5074522;28;20028;-70
2021/07/01 11:34:01;;;;;;;8.52;3.42;;;896.90;1433.60;;;;;;5067108;28;20104;-69
2021/07/01 11:36:28;;;;;;;9.43;3.40;;;896.90;1408.00;;;;;;5072529;28;20025;-70
2021/07/01 11:39:05;;;;;;;11.63;3.55;;;921.70;1433.60;;;;;;5073144;28;20048;-70
2021/07/01 11:41:32;;;;;;;9.38;3.35;;;922.00;1382.40;;;;;;5072718;28;20458;-70
2021/07/01 11:43:58;;;;;;;7.60;3.33;;;947.20;1356.80;;;;;;5072632;28;20024;-72
2021/07/01 11:46:25;;;;;;;9.77;3.22;;;947.70;1356.80;;;;;;5072432;28;20436;-72
2021/07/01 11:48:53;;;;;;;8.52;2.92;;;948.10;1331.20;;;;;;5072361;28;20390;-71
2021/07/01 11:51:22;;;;;;;9.95;3.28;;;973.00;1356.80;;;;;;5068249;28;20025;-72
2021/07/01 11:53:52;;;;;;;11.97;2.80;;;973.10;1331.20;;;;;;5070979;28;20031;-70
2021/07/01 11:56:21;;;;;;;10.05;3.25;;;973.20;1356.80;;;;;;5061736;28;20268;-71
2021/07/01 11:58:47;;;;;;;10.52;3.00;;;973.30;1331.20;;;;;;5072447;28;20372;-70
2021/07/01 12:01:13;;;;;;;5.38;2.90;;;973.50;1305.60;;;;;;5071830;28;20082;-71
2021/07/01 12:03:40;;;;;;;8.50;3.00;;;973.70;1331.20;;;;;;5068838;28;20020;-72
2021/07/01 12:06:17;;;;;;;8.90;3.00;;;973.70;1280.00;;;;;;5070380;28;20360;-71
2021/07/01 12:08:43;;;;;;;10.90;2.95;;;998.40;1305.60;;;;;;5067628;28;20029;-70
2021/07/01 12:11:09;;;;;;;6.85;2.75;;;998.50;1280.00;;;;;;5069949;28;20368;-70
2021/07/01 12:13:35;;;;;;;6.85;3.15;;;998.50;1280.00;;;;;;5072793;28;20050;-70
2021/07/01 12:16:05;;;;;;;6.53;2.70;;;998.60;1305.60;;;;;;5072658;28;20435;-71
2021/07/01 12:18:53;;;;;;;9.43;3.00;;;998.60;1254.40;;;;;;5067945;28;20433;-70
2021/07/01 12:21:30;;;;;;;7.60;2.92;;;998.40;1305.60;;;;;;5068519;28;20024;-69